createdAt,value
2019-05-18T00:01:29.742Z,13.50
2019-05-18T00:03:59.293Z,13.40
2019-05-18T00:06:29.857Z,13.40
2019-05-18T00:08:59.461Z,13.30
2019-05-18T00:11:29.103Z,13.30
2019-05-18T00:13:58.635Z,13.30
2019-05-18T00:16:28.267Z,13.20
2019-05-18T00:18:57.813Z,13.20
2019-05-18T00:21:27.393Z,13.10
2019-05-18T00:23:56.954Z,13.10
2019-05-18T00:26:26.512Z,13.00
2019-05-18T00:28:57.623Z,13.00
2019-05-18T00:31:27.206Z,13.00
2019-05-18T00:33:56.777Z,13.00
2019-05-18T00:36:26.519Z,12.90
2019-05-18T00:38:56.054Z,12.90
2019-05-18T00:41:25.654Z,12.80
2019-05-18T00:43:55.208Z,12.90
2019-05-18T00:46:24.845Z,12.90
2019-05-18T00:48:54.502Z,12.80
2019-05-18T00:51:24.064Z,12.70
2019-05-18T00:53:53.634Z,12.60
2019-05-18T00:56:23.227Z,12.60
2019-05-18T00:58:52.829Z,12.60
2019-05-18T01:01:22.484Z,12.60
2019-05-18T01:03:52.020Z,12.60
2019-05-18T01:06:21.601Z,12.60
2019-05-18T01:08:51.209Z,12.60
2019-05-18T01:11:20.752Z,12.60
2019-05-18T01:13:50.388Z,12.50
2019-05-18T01:16:20.049Z,12.50
2019-05-18T01:18:49.603Z,12.40
2019-05-18T01:21:19.213Z,12.40
2019-05-18T01:23:48.773Z,12.30
2019-05-18T01:26:18.338Z,12.30
2019-05-18T01:28:47.909Z,12.30
2019-05-18T01:31:17.473Z,12.40
2019-05-18T01:33:47.081Z,12.20
2019-05-18T01:36:16.641Z,12.10
2019-05-18T01:38:46.260Z,11.90
2019-05-18T01:41:15.869Z,12.00
2019-05-18T01:43:45.408Z,11.80
2019-05-18T01:46:15.000Z,11.90
2019-05-18T01:48:44.524Z,11.90
2019-05-18T01:51:14.098Z,11.90
2019-05-18T01:53:43.781Z,12.00
2019-05-18T01:56:13.368Z,11.90
2019-05-18T01:58:42.924Z,11.90
2019-05-18T02:01:12.546Z,11.90
2019-05-18T02:03:42.173Z,11.80
2019-05-18T02:06:11.789Z,11.90
2019-05-18T02:08:41.410Z,11.70
2019-05-18T02:11:10.945Z,11.70
2019-05-18T02:13:40.518Z,11.70
2019-05-18T02:16:10.098Z,11.70
2019-05-18T02:18:39.674Z,11.70
2019-05-18T02:21:09.219Z,11.60
2019-05-18T02:23:38.761Z,11.50
2019-05-18T02:26:08.334Z,11.50
2019-05-18T02:28:38.486Z,11.50
2019-05-18T02:31:08.006Z,11.50
2019-05-18T02:33:37.599Z,11.50
2019-05-18T02:36:07.176Z,11.50
2019-05-18T02:38:36.861Z,11.40
2019-05-18T02:41:06.537Z,11.50
2019-05-18T02:43:36.115Z,11.60
2019-05-18T02:46:05.794Z,11.70
2019-05-18T02:48:48.413Z,11.80
2019-05-18T02:51:11.574Z,11.80
2019-05-18T02:53:40.658Z,11.80
2019-05-18T02:56:10.229Z,11.80
2019-05-18T02:58:39.839Z,11.80
2019-05-18T03:01:09.413Z,11.70
2019-05-18T03:03:39.008Z,11.70
2019-05-18T03:06:08.806Z,11.60
2019-05-18T03:08:38.513Z,11.60
2019-05-18T03:11:08.146Z,11.50
2019-05-18T03:13:37.787Z,11.40
2019-05-18T03:16:07.358Z,11.40
2019-05-18T03:18:36.932Z,11.40
2019-05-18T03:21:06.497Z,11.30
2019-05-18T03:23:36.058Z,11.40
2019-05-18T03:26:05.671Z,11.40
2019-05-18T03:28:35.318Z,11.40
2019-05-18T03:31:04.999Z,11.40
2019-05-18T03:33:34.592Z,11.40
2019-05-18T03:36:04.256Z,11.50
2019-05-18T03:38:33.831Z,11.50
2019-05-18T03:41:03.430Z,11.50
2019-05-18T03:43:33.037Z,11.50
2019-05-18T03:46:02.606Z,11.50
2019-05-18T03:48:32.209Z,11.60
2019-05-18T03:51:01.795Z,11.60
2019-05-18T03:53:31.370Z,11.70
2019-05-18T03:56:01.039Z,11.80
2019-05-18T03:58:30.690Z,11.80
2019-05-18T04:01:00.394Z,11.80
2019-05-18T04:03:30.758Z,11.90
2019-05-18T04:06:00.309Z,11.90
2019-05-18T04:08:29.880Z,12.00
2019-05-18T04:10:59.467Z,12.00
2019-05-18T04:13:29.027Z,12.00
2019-05-18T04:15:59.551Z,12.00
2019-05-18T04:18:29.137Z,12.00
2019-05-18T04:21:01.841Z,12.00
2019-05-18T04:23:31.422Z,12.20
2019-05-18T04:26:00.993Z,12.20
2019-05-18T04:28:30.544Z,12.30
2019-05-18T04:31:00.198Z,12.50
2019-05-18T04:33:29.854Z,12.60
2019-05-18T04:35:59.438Z,12.70
2019-05-18T04:38:29.041Z,12.90
2019-05-18T04:40:58.583Z,12.90
2019-05-18T04:43:28.182Z,13.00
2019-05-18T04:45:57.856Z,13.00
2019-05-18T04:48:27.497Z,12.90
2019-05-18T04:50:58.030Z,12.90
2019-05-18T04:53:28.615Z,12.90
2019-05-18T04:55:58.618Z,12.90
2019-05-18T04:58:28.220Z,12.90
2019-05-18T05:00:57.768Z,12.90
2019-05-18T05:03:27.358Z,12.90
2019-05-18T05:05:56.908Z,13.00
2019-05-18T05:08:26.492Z,13.10
2019-05-18T05:10:56.088Z,13.10
2019-05-18T05:13:26.602Z,13.20
2019-05-18T05:15:56.184Z,13.20
2019-05-18T05:18:25.750Z,13.20
2019-05-18T05:20:55.555Z,13.40
2019-05-18T05:23:25.187Z,13.50
2019-05-18T05:25:54.820Z,13.60
2019-05-18T05:28:24.388Z,13.80
2019-05-18T05:30:54.002Z,13.90
2019-05-18T05:33:23.649Z,13.90
2019-05-18T05:35:53.249Z,14.10
2019-05-18T05:38:22.835Z,14.40
2019-05-18T05:40:52.476Z,14.50
2019-05-18T05:43:22.028Z,14.70
2019-05-18T05:45:51.580Z,14.80
2019-05-18T05:48:21.236Z,15.00
2019-05-18T05:50:50.791Z,15.10
2019-05-18T05:53:20.344Z,15.20
2019-05-18T05:55:49.918Z,15.20
2019-05-18T05:58:19.515Z,15.40
2019-05-18T06:00:49.092Z,15.30
2019-05-18T06:03:18.684Z,15.50
2019-05-18T06:05:48.230Z,15.70
2019-05-18T06:08:17.799Z,15.70
2019-05-18T06:10:47.351Z,15.80
2019-05-18T06:13:17.032Z,15.80
2019-05-18T06:15:46.606Z,15.80
2019-05-18T06:18:16.264Z,16.00
2019-05-18T06:20:51.318Z,16.10
2019-05-18T06:23:17.280Z,16.00
2019-05-18T06:25:47.103Z,16.10
2019-05-18T06:28:16.911Z,16.10
2019-05-18T06:30:46.472Z,16.10
2019-05-18T06:33:16.064Z,16.10
2019-05-18T06:35:45.670Z,16.20
2019-05-18T06:38:15.319Z,16.40
2019-05-18T06:40:44.916Z,16.50
2019-05-18T06:43:14.541Z,16.60
2019-05-18T06:45:44.173Z,16.40
2019-05-18T06:48:13.733Z,16.60
2019-05-18T06:50:44.170Z,16.60
2019-05-18T06:53:13.724Z,16.70
2019-05-18T06:55:43.804Z,16.80
2019-05-18T06:58:14.751Z,16.70
2019-05-18T07:00:44.283Z,16.70
2019-05-18T07:03:17.197Z,16.80
2019-05-18T07:05:46.773Z,17.00
2019-05-18T07:08:17.374Z,17.10
2019-05-18T07:10:46.948Z,17.20
2019-05-18T07:13:16.500Z,17.30
2019-05-18T07:15:46.080Z,17.40
2019-05-18T07:18:15.673Z,17.30
2019-05-18T07:20:45.212Z,17.20
2019-05-18T07:23:14.772Z,17.20
2019-05-18T07:25:44.421Z,17.30
2019-05-18T07:28:14.011Z,17.30
2019-05-18T07:30:43.790Z,17.40
2019-05-18T07:33:14.336Z,17.50
2019-05-18T07:35:43.936Z,17.40
2019-05-18T07:38:13.508Z,17.50
2019-05-18T07:40:43.064Z,17.70
2019-05-18T07:43:12.661Z,17.90
2019-05-18T07:45:42.207Z,17.90
2019-05-18T07:48:11.817Z,18.00
2019-05-18T07:50:41.407Z,18.10
2019-05-18T07:53:11.011Z,18.20
2019-05-18T07:55:40.534Z,18.40
2019-05-18T07:58:10.096Z,18.40
2019-05-18T08:00:39.900Z,18.50
2019-05-18T08:03:09.737Z,18.70
2019-05-18T08:05:39.292Z,18.80
2019-05-18T08:08:09.824Z,18.90
2019-05-18T08:10:39.519Z,19.00
2019-05-18T08:13:09.182Z,19.20
2019-05-18T08:15:38.800Z,19.40
2019-05-18T08:18:08.385Z,19.50
2019-05-18T08:20:37.952Z,19.70
2019-05-18T08:23:07.499Z,19.80
2019-05-18T08:25:37.101Z,19.90
2019-05-18T08:28:06.641Z,19.80
2019-05-18T08:30:36.210Z,19.90
2019-05-18T08:33:05.871Z,20.00
2019-05-18T08:35:35.434Z,20.20
2019-05-18T08:38:05.091Z,20.50
2019-05-18T08:40:34.618Z,20.70
2019-05-18T08:43:04.331Z,20.70
2019-05-18T08:45:33.857Z,20.80
2019-05-18T08:48:03.426Z,21.00
2019-05-18T08:50:33.025Z,21.10
2019-05-18T08:53:02.595Z,21.20
2019-05-18T08:55:32.216Z,21.20
2019-05-18T08:58:01.779Z,21.30
2019-05-18T09:00:31.429Z,21.30
2019-05-18T09:03:00.958Z,21.30
2019-05-18T09:05:30.512Z,21.40
2019-05-18T09:08:00.178Z,21.40
2019-05-18T09:10:29.761Z,21.60
2019-05-18T09:12:59.350Z,21.90
2019-05-18T09:15:28.902Z,22.10
2019-05-18T09:17:58.513Z,22.10
2019-05-18T09:20:28.076Z,22.00
2019-05-18T09:22:57.669Z,21.90
2019-05-18T09:25:27.209Z,22.10
2019-05-18T09:27:56.743Z,22.40
2019-05-18T09:30:26.403Z,22.40
2019-05-18T09:32:55.944Z,22.60
2019-05-18T09:35:26.542Z,22.60
2019-05-18T09:37:56.442Z,22.70
2019-05-18T09:40:26.002Z,22.80
2019-05-18T09:42:55.549Z,23.00
2019-05-18T09:45:25.255Z,23.10
2019-05-18T09:47:54.854Z,23.30
2019-05-18T09:50:24.498Z,23.20
2019-05-18T09:52:54.048Z,23.50
2019-05-18T09:55:23.622Z,23.70
2019-05-18T09:57:53.175Z,23.70
2019-05-18T10:00:23.200Z,23.70
2019-05-18T10:02:52.781Z,23.80
2019-05-18T10:05:22.351Z,24.00
2019-05-18T10:07:51.993Z,24.00
2019-05-18T10:10:21.616Z,24.20
2019-05-18T10:12:51.184Z,24.30
2019-05-18T10:15:20.966Z,24.40
2019-05-18T10:17:50.653Z,24.60
2019-05-18T10:20:20.418Z,24.70
2019-05-18T10:22:58.953Z,24.70
2019-05-18T10:25:21.399Z,24.80
2019-05-18T10:27:50.957Z,24.90
2019-05-18T10:30:21.241Z,25.00
2019-05-18T10:32:50.780Z,24.90
2019-05-18T10:35:20.360Z,25.00
2019-05-18T10:37:49.959Z,25.30
2019-05-18T10:40:19.864Z,25.50
2019-05-18T10:42:49.417Z,25.10
2019-05-18T10:45:18.979Z,25.50
2019-05-18T10:47:48.529Z,25.60
2019-05-18T10:50:18.168Z,25.50
2019-05-18T10:52:47.739Z,25.10
2019-05-18T10:55:18.023Z,25.10
2019-05-18T10:57:47.716Z,25.20
2019-05-18T11:00:19.193Z,25.50
2019-05-18T11:02:48.925Z,25.70
2019-05-18T11:05:19.494Z,25.50
2019-05-18T11:07:49.048Z,25.80
2019-05-18T11:10:18.827Z,25.80
2019-05-18T11:12:48.373Z,25.80
2019-05-18T11:15:18.883Z,26.00
2019-05-18T11:17:48.496Z,26.20
2019-05-18T11:20:18.721Z,26.50
2019-05-18T11:22:48.331Z,26.50
2019-05-18T11:25:17.970Z,26.40
2019-05-18T11:27:47.541Z,26.30
2019-05-18T11:30:17.519Z,26.30
2019-05-18T11:32:47.052Z,26.50
2019-05-18T11:35:18.993Z,26.80
2019-05-18T11:37:48.614Z,26.60
2019-05-18T11:40:18.749Z,26.20
2019-05-18T11:42:48.329Z,26.10
2019-05-18T11:45:19.113Z,26.20
2019-05-18T11:47:48.728Z,26.50
2019-05-18T11:50:18.632Z,26.70
2019-05-18T11:52:48.275Z,26.90
2019-05-18T11:55:17.908Z,26.80
2019-05-18T11:57:47.450Z,26.50
2019-05-18T12:00:17.704Z,26.50
2019-05-18T12:02:47.332Z,26.90
2019-05-18T12:05:17.192Z,27.10
2019-05-18T12:07:46.956Z,27.30
2019-05-18T12:10:18.546Z,27.00
2019-05-18T12:12:47.977Z,26.50
2019-05-18T12:15:17.900Z,26.50
2019-05-18T12:17:47.496Z,26.80
2019-05-18T12:20:17.199Z,27.50
2019-05-18T12:22:46.850Z,28.00
2019-05-18T12:25:16.864Z,27.90
2019-05-18T12:27:46.546Z,27.60
2019-05-18T12:30:17.075Z,27.80
2019-05-18T12:32:46.660Z,28.30
2019-05-18T12:35:16.361Z,28.80
2019-05-18T12:37:45.914Z,28.70
2019-05-18T12:40:18.492Z,28.80
2019-05-18T12:42:48.141Z,29.30
2019-05-18T12:45:19.485Z,29.60
2019-05-18T12:47:48.997Z,29.40
2019-05-18T12:50:19.625Z,29.40
2019-05-18T12:52:49.223Z,28.60
2019-05-18T12:55:19.161Z,27.80
2019-05-18T12:57:48.817Z,28.10
2019-05-18T13:00:19.124Z,28.20
2019-05-18T13:02:49.696Z,28.90
2019-05-18T13:05:19.935Z,29.20
2019-05-18T13:07:49.574Z,29.20
2019-05-18T13:10:20.101Z,29.60
2019-05-18T13:12:49.752Z,29.20
2019-05-18T13:15:22.258Z,28.70
2019-05-18T13:17:51.915Z,27.90
2019-05-18T13:20:22.081Z,27.50
2019-05-18T13:22:51.603Z,27.10
2019-05-18T13:25:21.337Z,27.00
2019-05-18T13:27:50.896Z,27.70
2019-05-18T13:30:20.798Z,27.70
2019-05-18T13:32:50.359Z,27.60
2019-05-18T13:35:19.976Z,27.20
2019-05-18T13:37:49.527Z,26.90
2019-05-18T13:40:19.512Z,27.60
2019-05-18T13:42:49.060Z,28.60
2019-05-18T13:45:19.184Z,29.20
2019-05-18T13:47:48.795Z,29.10
2019-05-18T13:50:18.801Z,28.80
2019-05-18T13:52:48.441Z,28.70
2019-05-18T13:55:17.977Z,29.50
2019-05-18T13:57:47.566Z,30.10
2019-05-18T14:00:17.848Z,30.30
2019-05-18T14:02:47.563Z,30.50
2019-05-18T14:05:17.453Z,30.80
2019-05-18T14:07:47.990Z,30.00
2019-05-18T14:10:18.431Z,31.00
2019-05-18T14:12:48.022Z,30.70
2019-05-18T14:15:22.558Z,30.20
2019-05-18T14:17:50.242Z,29.60
2019-05-18T14:20:20.870Z,29.20
2019-05-18T14:22:50.392Z,28.80
2019-05-18T14:25:20.393Z,29.30
2019-05-18T14:27:50.188Z,29.50
2019-05-18T14:30:21.620Z,30.40
2019-05-18T14:32:51.144Z,30.40
2019-05-18T14:35:20.871Z,30.50
2019-05-18T14:37:50.441Z,30.60
2019-05-18T14:40:20.114Z,30.70
2019-05-18T14:42:49.630Z,31.00
2019-05-18T14:45:19.348Z,31.70
2019-05-18T14:47:48.957Z,31.90
2019-05-18T14:50:19.147Z,31.70
2019-05-18T14:52:48.777Z,31.70
2019-05-18T14:55:32.781Z,31.70
2019-05-18T14:57:51.255Z,31.80
2019-05-18T15:00:21.029Z,32.20
2019-05-18T15:02:50.592Z,32.20
2019-05-18T15:05:20.142Z,31.70
2019-05-18T15:07:49.713Z,31.10
2019-05-18T15:10:19.474Z,31.70
2019-05-18T15:12:49.040Z,31.90
2019-05-18T15:15:18.843Z,31.80
2019-05-18T15:17:48.394Z,32.20
2019-05-18T15:20:18.253Z,32.50
2019-05-18T15:22:47.833Z,32.60
2019-05-18T15:25:17.461Z,32.80
2019-05-18T15:27:47.052Z,33.00
2019-05-18T15:30:17.161Z,33.00
2019-05-18T15:32:46.699Z,32.40
2019-05-18T15:35:16.530Z,32.50
2019-05-18T15:37:46.170Z,32.90
2019-05-18T15:40:16.371Z,33.10
2019-05-18T15:42:46.086Z,33.50
2019-05-18T15:45:16.378Z,33.60
2019-05-18T15:47:45.923Z,33.90
2019-05-18T15:50:16.869Z,33.20
2019-05-18T15:52:46.388Z,33.80
2019-05-18T15:55:16.196Z,33.90
2019-05-18T15:57:45.791Z,33.20
2019-05-18T16:00:16.122Z,32.50
2019-05-18T16:02:45.729Z,31.70
2019-05-18T16:05:15.689Z,31.40
2019-05-18T16:07:45.301Z,30.90
2019-05-18T16:10:17.022Z,30.40
2019-05-18T16:12:46.598Z,30.20
2019-05-18T16:18:12.655Z,30.00
2019-05-18T16:20:42.460Z,29.90
2019-05-18T16:23:12.008Z,30.10
2019-05-18T16:25:41.614Z,29.80
2019-05-18T16:28:11.151Z,30.00
2019-05-18T16:30:40.726Z,30.20
2019-05-18T16:33:10.301Z,30.20
2019-05-18T16:35:39.836Z,29.70
2019-05-18T16:38:09.382Z,29.60
2019-05-18T16:40:38.959Z,29.90
2019-05-18T16:43:08.532Z,29.80
2019-05-18T16:45:39.069Z,29.60
2019-05-18T16:48:08.655Z,29.60
2019-05-18T16:50:39.203Z,29.40
2019-05-18T16:53:08.776Z,29.10
2019-05-18T16:55:38.346Z,28.70
2019-05-18T16:58:07.968Z,28.10
2019-05-18T17:00:37.626Z,27.50
2019-05-18T17:03:07.257Z,27.00
2019-05-18T17:05:36.852Z,26.60
2019-05-18T17:08:06.391Z,26.40
2019-05-18T17:10:35.983Z,26.20
2019-05-18T17:13:05.531Z,26.00
2019-05-18T17:15:35.192Z,25.80
2019-05-18T17:18:04.809Z,25.60
2019-05-18T17:20:34.465Z,25.60
2019-05-18T17:23:04.069Z,25.50
2019-05-18T17:25:33.789Z,25.30
2019-05-18T17:28:03.411Z,25.20
2019-05-18T17:30:33.030Z,25.10
2019-05-18T17:33:02.674Z,24.90
2019-05-18T17:35:32.246Z,24.80
2019-05-18T17:38:01.775Z,24.70
2019-05-18T17:40:34.407Z,24.60
2019-05-18T17:43:04.067Z,24.50
2019-05-18T17:45:33.678Z,24.40
2019-05-18T17:48:03.295Z,24.50
2019-05-18T17:50:32.861Z,24.30
2019-05-18T17:53:02.438Z,24.30
2019-05-18T17:55:32.022Z,24.20
2019-05-18T17:58:01.715Z,24.10
2019-05-18T18:00:31.350Z,24.20
2019-05-18T18:03:00.915Z,24.10
2019-05-18T18:05:30.484Z,24.10
2019-05-18T18:08:00.035Z,24.10
2019-05-18T18:10:29.575Z,24.00
2019-05-18T18:12:59.216Z,23.90
2019-05-18T18:15:28.765Z,23.80
2019-05-18T18:17:58.362Z,23.80
2019-05-18T18:20:28.873Z,23.70
2019-05-18T18:22:58.451Z,23.50
2019-05-18T18:25:28.048Z,23.40
2019-05-18T18:27:57.648Z,23.20
2019-05-18T18:30:27.297Z,23.10
2019-05-18T18:32:56.855Z,23.00
2019-05-18T18:35:26.391Z,22.90
2019-05-18T18:37:55.985Z,22.80
2019-05-18T18:40:25.545Z,22.80
2019-05-18T18:42:55.093Z,22.70
2019-05-18T18:45:24.698Z,22.60
2019-05-18T18:47:54.248Z,22.50
2019-05-18T18:50:23.914Z,22.40
2019-05-18T18:52:53.506Z,22.40
2019-05-18T18:55:23.086Z,22.30
2019-05-18T18:57:52.713Z,22.30
2019-05-18T19:00:22.827Z,22.10
2019-05-18T19:02:52.405Z,22.10
2019-05-18T19:05:22.137Z,22.00
2019-05-18T19:07:51.710Z,21.90
2019-05-18T19:10:21.386Z,21.90
2019-05-18T19:12:50.933Z,21.80
2019-05-18T19:15:20.765Z,21.70
2019-05-18T19:17:50.398Z,21.50
2019-05-18T19:20:20.049Z,21.40
2019-05-18T19:22:49.661Z,21.30
2019-05-18T19:25:19.542Z,21.20
2019-05-18T19:27:55.189Z,21.10
2019-05-18T19:30:20.626Z,21.00
2019-05-18T19:32:50.188Z,20.90
2019-05-18T19:35:19.850Z,20.80
2019-05-18T19:37:49.418Z,20.70
2019-05-18T19:40:19.112Z,20.60
2019-05-18T19:42:48.657Z,20.30
2019-05-18T19:45:18.393Z,20.10
2019-05-18T19:47:47.929Z,20.00
2019-05-18T19:50:17.605Z,19.90
2019-05-18T19:52:47.155Z,19.90
2019-05-18T19:55:16.757Z,19.90
2019-05-18T19:57:46.332Z,19.80
2019-05-18T20:00:16.295Z,19.60
2019-05-18T20:02:45.922Z,19.40
2019-05-18T20:05:15.689Z,19.20
2019-05-18T20:07:45.277Z,19.10
2019-05-18T20:10:15.189Z,19.00
2019-05-18T20:12:44.744Z,18.90
2019-05-18T20:15:14.561Z,19.00
2019-05-18T20:17:44.149Z,18.90
2019-05-18T20:20:14.366Z,18.90
2019-05-18T20:22:44.042Z,18.80
2019-05-18T20:25:15.219Z,18.80
2019-05-18T20:27:44.800Z,18.70
2019-05-18T20:30:14.940Z,18.50
2019-05-18T20:32:44.546Z,18.50
2019-05-18T20:35:14.290Z,18.30
2019-05-18T20:37:43.853Z,18.40
2019-05-18T20:40:13.764Z,18.40
2019-05-18T20:42:43.432Z,18.30
2019-05-18T20:45:13.082Z,18.20
2019-05-18T20:47:42.647Z,18.00
2019-05-18T20:50:12.520Z,17.90
2019-05-18T20:52:42.109Z,18.10
2019-05-18T20:55:12.697Z,18.10
2019-05-18T20:57:42.305Z,18.20
2019-05-18T21:00:12.158Z,18.10
2019-05-18T21:02:45.997Z,18.10
2019-05-18T21:05:18.167Z,18.00
2019-05-18T21:07:50.365Z,18.00
2019-05-18T21:10:23.113Z,18.00
2019-05-18T21:12:55.994Z,17.90
2019-05-18T21:15:25.689Z,17.90
2019-05-18T21:17:55.333Z,17.80
2019-05-18T21:20:24.893Z,17.70
2019-05-18T21:22:55.494Z,17.70
2019-05-18T21:25:25.385Z,17.60
2019-05-18T21:27:55.014Z,17.70
2019-05-18T21:30:24.649Z,17.60
2019-05-18T21:32:54.314Z,17.40
2019-05-18T21:35:23.893Z,17.30
2019-05-18T21:37:53.467Z,17.30
2019-05-18T21:40:26.087Z,17.30
2019-05-18T21:42:54.412Z,17.30
2019-05-18T21:45:24.029Z,17.20
2019-05-18T21:47:53.609Z,17.10
2019-05-18T21:50:23.246Z,17.10
2019-05-18T21:52:52.862Z,17.00
2019-05-18T21:55:22.438Z,16.90
2019-05-18T21:57:52.008Z,16.80
2019-05-18T22:00:22.403Z,16.70
2019-05-18T22:02:53.692Z,16.60
2019-05-18T22:05:23.301Z,16.40
2019-05-18T22:07:52.932Z,16.40
2019-05-18T22:10:25.869Z,16.40
2019-05-18T22:12:53.904Z,16.40
2019-05-18T22:15:23.501Z,16.40
2019-05-18T22:18:05.402Z,16.40
2019-05-18T22:20:35.625Z,16.30
2019-05-18T22:23:06.167Z,16.10
2019-05-18T22:25:35.733Z,16.00
2019-05-18T22:28:05.337Z,15.80
2019-05-18T22:30:34.960Z,15.80
2019-05-18T22:33:04.560Z,15.80
2019-05-18T22:35:34.221Z,15.70
2019-05-18T22:38:03.759Z,15.60
2019-05-18T22:40:33.338Z,15.50
2019-05-18T22:43:02.916Z,15.40
2019-05-18T22:45:32.677Z,15.40
2019-05-18T22:48:02.213Z,15.50
2019-05-18T22:50:31.764Z,15.40
2019-05-18T22:53:01.352Z,15.30
2019-05-18T22:55:30.965Z,15.30
2019-05-18T22:58:00.498Z,15.20
2019-05-18T23:00:30.100Z,15.30
2019-05-18T23:02:59.652Z,15.30
2019-05-18T23:05:29.237Z,15.30
2019-05-18T23:07:58.869Z,15.30
2019-05-18T23:10:28.437Z,15.20
2019-05-18T23:12:58.014Z,15.20
2019-05-18T23:15:27.588Z,15.30
2019-05-18T23:17:57.149Z,15.30
2019-05-18T23:20:26.783Z,15.30
2019-05-18T23:22:56.357Z,15.10
2019-05-18T23:25:25.907Z,15.00
2019-05-18T23:27:55.531Z,14.90
2019-05-18T23:30:25.132Z,14.80
2019-05-18T23:32:54.848Z,14.70
2019-05-18T23:35:24.400Z,14.70
2019-05-18T23:37:54.028Z,14.60
2019-05-18T23:40:23.661Z,14.70
2019-05-18T23:42:53.235Z,14.60
2019-05-18T23:45:22.780Z,14.60
2019-05-18T23:47:52.333Z,14.60
2019-05-18T23:50:21.942Z,14.50
2019-05-18T23:52:51.583Z,14.40
2019-05-18T23:55:21.163Z,14.40
2019-05-18T23:57:50.813Z,14.30
